Time;durP1;ratioP1;P1;durP2;ratioP2;P2;SDS_P1;SDS_P2;PMS_P1;PMS_P2;Temp;Humidity;BMP_temperature;BMP_pressure;BME280_temperature;BME280_humidity;BME280_pressure;Samples;Min_cycle;Max_cycle;Signal;HPM_P1;HPM_P2
2022/06/14 00:01:16;;;;;;;2.23;2.03;;;17.40;57.50;;;;;;4982102;28;20501;-46
2022/06/14 00:03:45;;;;;;;2.50;2.20;;;17.40;57.40;;;;;;4985055;28;20544;-46
2022/06/14 00:06:18;;;;;;;3.57;2.17;;;17.30;57.90;;;;;;4982459;28;20462;-46
2022/06/14 00:08:45;;;;;;;2.80;2.33;;;17.20;58.60;;;;;;4982928;28;21058;-46
2022/06/14 00:11:25;;;;;;;3.00;2.07;;;17.20;58.70;;;;;;4965238;28;20548;-46
2022/06/14 00:13:54;;;;;;;3.80;1.90;;;17.20;58.70;;;;;;4965526;28;20465;-46
2022/06/14 00:16:22;;;;;;;3.00;1.70;;;17.20;58.20;;;;;;4981091;28;20501;-46
2022/06/14 00:18:49;;;;;;;2.47;2.20;;;17.10;58.00;;;;;;4964945;28;20544;-46
2022/06/14 00:21:17;;;;;;;2.20;2.00;;;17.00;58.30;;;;;;4966032;28;20489;-46
2022/06/14 00:23:44;;;;;;;3.20;2.30;;;17.00;58.90;;;;;;4982478;28;20592;-46
2022/06/14 00:26:12;;;;;;;2.50;2.30;;;16.90;59.00;;;;;;4985524;28;20457;-46
2022/06/14 00:28:40;;;;;;;3.53;1.83;;;16.90;59.00;;;;;;4969137;28;20469;-46
2022/06/14 00:31:14;;;;;;;1.60;1.50;;;16.90;59.50;;;;;;4969389;28;20729;-46
2022/06/14 00:33:42;;;;;;;3.13;1.80;;;16.90;59.40;;;;;;4989666;28;20516;-46
2022/06/14 00:36:18;;;;;;;2.00;1.63;;;16.80;59.00;;;;;;4967257;28;20477;-46
2022/06/14 00:38:45;;;;;;;2.40;2.13;;;16.80;59.30;;;;;;4970875;28;20479;-46
2022/06/14 00:41:26;;;;;;;2.40;2.20;;;16.90;59.50;;;;;;4988960;28;21006;-46
2022/06/14 00:43:53;;;;;;;1.80;1.70;;;16.80;59.30;;;;;;4966082;28;20884;-45
2022/06/14 00:46:24;;;;;;;2.37;1.80;;;16.80;59.50;;;;;;4983993;28;20469;-45
2022/06/14 00:49:00;;;;;;;3.00;2.03;;;16.80;59.30;;;;;;4984653;28;20490;-46
2022/06/14 00:51:32;;;;;;;3.27;1.63;;;16.80;59.50;;;;;;4951116;28;20474;-45
2022/06/14 00:54:03;;;;;;;3.17;2.27;;;16.80;59.40;;;;;;4989920;28;20473;-46
2022/06/14 00:56:43;;;;;;;3.53;1.97;;;16.80;59.40;;;;;;4989831;28;20488;-46
2022/06/14 00:59:28;;;;;;;1.87;1.77;;;16.70;59.70;;;;;;4972663;28;20473;-45
2022/06/14 01:02:20;;;;;;;2.20;2.00;;;16.70;59.70;;;;;;4987722;28;20479;-45
2022/06/14 01:04:48;;;;;;;2.10;1.90;;;16.60;59.60;;;;;;4987128;28;20503;-46
2022/06/14 01:07:21;;;;;;;3.23;1.97;;;16.60;59.30;;;;;;4984475;28;20594;-45
2022/06/14 01:10:02;;;;;;;2.30;2.00;;;16.60;59.90;;;;;;4985518;28;20927;-46
2022/06/14 01:12:33;;;;;;;2.53;1.63;;;16.60;60.20;;;;;;4986688;28;20457;-46
2022/06/14 01:15:05;;;;;;;2.07;1.87;;;16.50;60.10;;;;;;4979400;28;20570;-46
2022/06/14 01:17:42;;;;;;;2.93;2.50;;;16.50;60.70;;;;;;4963588;28;20457;-46
2022/06/14 01:20:12;;;;;;;2.40;2.20;;;16.50;60.70;;;;;;4985764;28;20488;-46
2022/06/14 01:22:40;;;;;;;2.33;2.13;;;16.50;60.80;;;;;;4969769;28;20964;-46
2022/06/14 01:25:07;;;;;;;4.80;2.60;;;16.50;61.00;;;;;;4987967;28;20471;-46
2022/06/14 01:27:36;;;;;;;2.60;2.30;;;16.40;61.00;;;;;;4987542;28;20544;-46
2022/06/14 01:30:09;;;;;;;2.90;2.03;;;16.50;61.00;;;;;;4988356;28;20457;-46
2022/06/14 01:32:45;;;;;;;3.00;1.93;;;16.50;61.00;;;;;;4971350;28;20921;-46
2022/06/14 01:35:16;;;;;;;5.83;3.30;;;16.50;61.00;;;;;;4983025;28;20539;-46
2022/06/14 01:37:47;;;;;;;2.37;2.10;;;16.40;60.90;;;;;;4987126;28;20799;-46
2022/06/14 01:40:14;;;;;;;2.63;1.83;;;16.40;60.50;;;;;;4985948;28;20506;-46
2022/06/14 01:42:55;;;;;;;3.57;2.37;;;16.30;60.70;;;;;;4987456;28;20817;-46
2022/06/14 01:45:34;;;;;;;4.83;2.17;;;16.30;61.20;;;;;;4971207;28;20543;-46
2022/06/14 01:48:28;;;;;;;2.23;2.03;;;16.20;61.70;;;;;;4970186;28;21015;-46
2022/06/14 01:54:13;;;;;;;4.80;2.80;;;16.20;61.70;;;;;;4985816;28;20469;-46
2022/06/14 01:56:49;;;;;;;7.03;2.27;;;16.20;61.90;;;;;;4969331;28;20460;-45
2022/06/14 01:59:47;;;;;;;3.07;2.10;;;16.10;62.20;;;;;;4986144;28;20475;-44
2022/06/14 02:02:28;;;;;;;2.40;2.17;;;16.00;62.20;;;;;;4984413;28;20496;-45
2022/06/14 02:04:57;;;;;;;2.47;2.30;;;16.00;62.80;;;;;;4985423;28;20461;-45
2022/06/14 02:07:49;;;;;;;2.60;2.00;;;16.00;63.10;;;;;;4970732;28;20465;-45
2022/06/14 02:10:32;;;;;;;2.53;2.10;;;16.00;63.10;;;;;;4987692;28;20988;-46
2022/06/14 02:13:10;;;;;;;2.70;2.10;;;16.00;63.00;;;;;;4985267;28;20470;-46
2022/06/14 02:15:43;;;;;;;3.37;1.97;;;16.00;63.10;;;;;;4969642;28;20484;-46
2022/06/14 02:18:36;;;;;;;2.37;2.17;;;16.00;63.10;;;;;;4966694;28;20541;-46
2022/06/14 02:21:35;;;;;;;3.33;3.03;;;15.90;63.20;;;;;;4981966;28;20489;-46
2022/06/14 02:24:24;;;;;;;4.17;2.13;;;15.90;63.00;;;;;;4982578;28;20465;-46
2022/06/14 02:26:54;;;;;;;2.17;1.97;;;15.90;62.90;;;;;;4986560;28;20461;-46
2022/06/14 02:29:31;;;;;;;2.57;2.10;;;15.80;62.90;;;;;;4966777;28;20464;-45
2022/06/14 02:32:07;;;;;;;3.90;2.90;;;15.80;62.60;;;;;;4988869;28;20464;-46
2022/06/14 02:34:49;;;;;;;5.83;2.30;;;15.80;62.60;;;;;;4985609;28;20476;-46
2022/06/14 02:37:24;;;;;;;2.60;2.20;;;15.80;62.00;;;;;;4969615;28;20464;-46
2022/06/14 02:39:58;;;;;;;2.43;2.23;;;15.70;61.70;;;;;;4987396;28;20463;-46
2022/06/14 02:42:55;;;;;;;4.13;2.20;;;15.70;61.60;;;;;;4970608;28;21253;-46
2022/06/14 02:45:27;;;;;;;5.70;2.27;;;15.60;61.60;;;;;;4955859;28;20958;-46
2022/06/14 02:48:05;;;;;;;2.60;2.17;;;15.50;61.80;;;;;;4972622;28;21070;-46
2022/06/14 02:50:44;;;;;;;2.40;2.10;;;15.50;62.00;;;;;;4985214;28;20456;-46
2022/06/14 02:53:14;;;;;;;5.07;2.00;;;15.40;62.40;;;;;;4984440;28;20555;-46
2022/06/14 02:55:50;;;;;;;2.37;2.17;;;15.30;62.90;;;;;;4987331;28;20504;-46
2022/06/14 02:58:31;;;;;;;3.53;3.23;;;15.30;63.00;;;;;;4966975;28;20468;-46
2022/06/14 03:01:07;;;;;;;3.67;3.37;;;15.30;62.90;;;;;;4989161;28;20489;-44
2022/06/14 03:04:17;;;;;;;4.67;3.40;;;15.30;62.60;;;;;;4985351;28;20465;-45
2022/06/14 03:06:50;;;;;;;3.90;3.60;;;15.20;62.70;;;;;;4967344;28;20469;-45
2022/06/14 03:09:22;;;;;;;4.63;2.90;;;15.10;63.30;;;;;;4987331;28;20540;-45
2022/06/14 03:11:57;;;;;;;3.37;2.50;;;15.10;63.90;;;;;;4987012;28;20501;-45
2022/06/14 03:14:27;;;;;;;3.50;2.60;;;15.00;64.00;;;;;;4983355;28;20472;-45
2022/06/14 03:17:30;;;;;;;5.20;2.47;;;15.00;64.20;;;;;;4972813;28;20881;-45
2022/06/14 03:20:18;;;;;;;2.73;2.30;;;15.00;64.60;;;;;;4980455;28;20547;-44
2022/06/14 03:23:03;;;;;;;2.70;2.50;;;14.90;64.90;;;;;;4982651;28;20487;-45
2022/06/14 03:25:49;;;;;;;5.10;2.73;;;14.90;65.00;;;;;;4987762;28;20474;-44
2022/06/14 03:28:25;;;;;;;5.43;2.90;;;14.90;65.30;;;;;;4985595;28;20464;-45
2022/06/14 03:31:07;;;;;;;5.57;2.53;;;14.90;65.60;;;;;;4951741;28;20477;-45
2022/06/14 03:33:47;;;;;;;3.43;2.23;;;14.90;65.70;;;;;;4983095;28;20820;-45
2022/06/14 03:36:15;;;;;;;2.83;2.63;;;14.90;65.80;;;;;;4985117;28;20512;-45
2022/06/14 03:38:56;;;;;;;5.43;2.80;;;14.90;65.80;;;;;;4985113;28;21017;-45
2022/06/14 03:41:27;;;;;;;3.40;2.53;;;14.90;65.90;;;;;;4965248;28;20496;-45
2022/06/14 03:43:58;;;;;;;3.87;3.13;;;14.90;65.80;;;;;;4985622;28;20457;-45
2022/06/14 03:46:30;;;;;;;4.70;3.37;;;14.90;65.80;;;;;;4969586;28;20457;-45
2022/06/14 03:49:23;;;;;;;5.57;3.23;;;14.80;65.90;;;;;;4966584;28;20969;-46
2022/06/14 03:51:55;;;;;;;4.10;2.70;;;14.80;66.10;;;;;;4983440;28;21011;-45
2022/06/14 03:54:34;;;;;;;3.03;2.70;;;14.90;65.90;;;;;;4981491;28;20966;-45
2022/06/14 03:57:04;;;;;;;2.87;2.30;;;14.90;65.90;;;;;;4985462;28;20494;-45
2022/06/14 03:59:46;;;;;;;3.90;3.47;;;14.80;66.00;;;;;;4967871;28;21074;-45
2022/06/14 04:02:53;;;;;;;4.27;2.67;;;14.80;66.20;;;;;;4986135;28;20587;-45
2022/06/14 04:05:32;;;;;;;3.80;2.50;;;14.90;66.10;;;;;;4981289;28;20467;-45
2022/06/14 04:08:08;;;;;;;2.83;2.53;;;14.90;65.70;;;;;;4985101;28;21177;-45
2022/06/14 04:10:44;;;;;;;4.00;3.00;;;14.90;65.10;;;;;;4986326;28;20491;-45
2022/06/14 04:13:42;;;;;;;3.10;2.57;;;14.90;65.10;;;;;;4982564;28;21010;-45
2022/06/14 04:16:17;;;;;;;3.60;2.63;;;14.90;65.10;;;;;;4956922;28;20465;-45
2022/06/14 04:19:20;;;;;;;2.90;2.37;;;14.90;65.50;;;;;;4981362;28;20472;-45
2022/06/14 04:21:53;;;;;;;3.00;2.63;;;14.90;65.70;;;;;;4984221;28;20488;-45
2022/06/14 04:24:40;;;;;;;4.30;3.90;;;14.90;65.70;;;;;;4983764;28;20503;-45
2022/06/14 04:27:29;;;;;;;2.50;2.27;;;14.90;65.80;;;;;;4985155;28;20473;-45
2022/06/14 04:29:59;;;;;;;4.60;2.50;;;14.90;66.00;;;;;;4985867;28;20526;-45
2022/06/14 04:32:28;;;;;;;3.13;2.33;;;14.90;65.80;;;;;;4981880;28;20473;-45
2022/06/14 04:35:07;;;;;;;3.40;2.40;;;14.90;65.80;;;;;;4982078;28;20835;-45
2022/06/14 04:38:19;;;;;;;3.53;2.30;;;15.00;65.60;;;;;;4985119;28;20899;-44
2022/06/14 04:41:08;;;;;;;2.97;2.40;;;15.00;65.30;;;;;;4952202;28;20465;-45
2022/06/14 04:43:56;;;;;;;5.93;2.40;;;15.00;65.70;;;;;;4983938;28;20471;-45
2022/06/14 04:46:27;;;;;;;4.50;2.57;;;15.00;65.90;;;;;;4984471;28;20512;-45
2022/06/14 04:49:11;;;;;;;3.73;2.60;;;15.10;65.90;;;;;;4984932;28;20523;-44
2022/06/14 04:51:45;;;;;;;2.13;2.03;;;15.10;66.00;;;;;;4985966;28;20484;-45
2022/06/14 04:54:36;;;;;;;2.17;1.93;;;15.10;66.10;;;;;;4985882;28;21075;-45
2022/06/14 04:57:21;;;;;;;2.77;2.30;;;15.10;66.40;;;;;;4985481;28;20465;-45
2022/06/14 05:00:08;;;;;;;4.20;2.07;;;15.10;66.00;;;;;;4983293;28;21019;-45
2022/06/14 05:02:45;;;;;;;4.63;2.70;;;15.20;66.20;;;;;;4967588;28;20488;-45
2022/06/14 05:05:16;;;;;;;5.07;3.50;;;15.30;66.30;;;;;;4984930;28;20457;-45
2022/06/14 05:07:51;;;;;;;2.20;1.97;;;15.30;66.30;;;;;;4985313;28;20457;-45
2022/06/14 05:10:30;;;;;;;2.80;2.20;;;15.30;66.40;;;;;;4985707;28;20543;-44
2022/06/14 05:13:02;;;;;;;2.77;2.07;;;15.40;66.20;;;;;;4985945;28;20464;-45
2022/06/14 05:15:46;;;;;;;2.83;2.30;;;15.50;65.70;;;;;;4968129;28;20553;-45
2022/06/14 05:18:34;;;;;;;2.33;2.13;;;15.50;65.20;;;;;;4985949;28;20472;-45
2022/06/14 05:21:11;;;;;;;2.70;2.40;;;15.70;64.80;;;;;;4985682;28;21227;-45
2022/06/14 05:23:42;;;;;;;2.43;2.27;;;15.70;64.80;;;;;;4986113;28;20981;-45
2022/06/14 05:26:32;;;;;;;5.30;3.50;;;15.70;65.00;;;;;;4987563;28;20471;-45
2022/06/14 05:29:14;;;;;;;3.53;2.27;;;15.70;64.50;;;;;;4985725;28;20839;-45
2022/06/14 05:31:52;;;;;;;3.43;2.37;;;15.80;63.40;;;;;;4987084;28;20498;-45
2022/06/14 05:34:49;;;;;;;4.67;2.80;;;15.90;63.30;;;;;;4969909;28;20889;-45
2022/06/14 05:37:33;;;;;;;3.10;2.80;;;16.00;63.50;;;;;;4987420;28;20464;-45
2022/06/14 05:40:07;;;;;;;2.90;2.70;;;16.10;63.70;;;;;;4987588;28;20731;-45
2022/06/14 05:42:41;;;;;;;2.93;2.23;;;16.20;63.60;;;;;;4985460;28;20492;-45
2022/06/14 05:45:12;;;;;;;3.60;2.87;;;16.20;63.40;;;;;;4981920;28;21012;-45
2022/06/14 05:47:48;;;;;;;4.70;3.20;;;16.30;63.60;;;;;;4984867;28;20462;-45
2022/06/14 05:50:23;;;;;;;6.27;3.20;;;16.40;63.20;;;;;;4984251;28;20476;-45
2022/06/14 05:52:56;;;;;;;4.17;3.13;;;16.40;63.20;;;;;;4984997;28;20472;-45
2022/06/14 05:55:38;;;;;;;6.47;3.10;;;16.50;63.30;;;;;;4973206;28;20845;-45
2022/06/14 05:58:25;;;;;;;4.23;2.40;;;16.60;63.00;;;;;;4987503;28;20493;-45
2022/06/14 06:01:17;;;;;;;4.77;2.30;;;16.70;60.50;;;;;;4969174;28;20492;-45
2022/06/14 06:04:28;;;;;;;3.47;1.90;;;16.80;60.20;;;;;;4978039;28;20481;-45
2022/06/14 06:07:00;;;;;;;4.93;2.10;;;16.90;59.50;;;;;;4954370;28;20502;-45
2022/06/14 06:09:31;;;;;;;4.00;1.97;;;17.00;59.50;;;;;;4987485;28;21039;-45
2022/06/14 06:12:26;;;;;;;4.73;2.37;;;17.00;59.30;;;;;;4987788;28;20457;-45
2022/06/14 06:15:00;;;;;;;4.10;2.17;;;17.00;57.70;;;;;;4985728;28;20461;-46
2022/06/14 06:17:55;;;;;;;4.77;2.20;;;17.10;57.60;;;;;;4986969;28;20846;-46
2022/06/14 06:20:36;;;;;;;4.33;2.07;;;17.20;57.80;;;;;;4965887;28;20468;-46
2022/06/14 06:23:40;;;;;;;5.67;2.30;;;17.30;57.80;;;;;;4985392;28;21021;-45
2022/06/14 06:26:08;;;;;;;4.43;2.20;;;17.40;57.70;;;;;;4962338;28;20535;-45
2022/06/14 06:28:40;;;;;;;4.70;2.40;;;17.40;57.50;;;;;;4971389;28;20464;-45
2022/06/14 06:31:13;;;;;;;5.33;2.40;;;17.60;57.10;;;;;;4967297;28;20963;-45
2022/06/14 06:33:44;;;;;;;4.60;2.00;;;17.80;56.60;;;;;;4985452;28;20933;-46
2022/06/14 06:36:35;;;;;;;4.63;1.80;;;17.80;56.60;;;;;;4955470;28;20759;-46
2022/06/14 06:39:32;;;;;;;5.83;1.87;;;17.90;56.60;;;;;;4985787;28;20461;-48
2022/06/14 06:42:25;;;;;;;2.43;1.70;;;18.00;55.90;;;;;;4988196;28;20530;-46
2022/06/14 06:45:20;;;;;;;5.03;1.77;;;18.00;53.80;;;;;;4987916;28;20457;-46
2022/06/14 06:47:59;;;;;;;2.67;2.00;;;18.10;54.10;;;;;;4970302;28;20549;-45
2022/06/14 06:50:39;;;;;;;5.60;1.97;;;18.20;54.20;;;;;;4984955;28;21070;-46
2022/06/14 06:53:12;;;;;;;5.33;1.70;;;18.40;54.30;;;;;;4986692;28;20834;-46
2022/06/14 06:56:06;;;;;;;2.80;1.83;;;18.50;54.80;;;;;;4979799;28;20500;-46
2022/06/14 06:58:58;;;;;;;3.43;2.27;;;18.70;53.70;;;;;;4966619;28;20465;-45
2022/06/14 07:01:39;;;;;;;9.47;1.90;;;18.90;53.10;;;;;;4964503;28;20481;-45
2022/06/14 07:05:03;;;;;;;6.63;1.97;;;19.00;52.70;;;;;;4986466;28;21014;-46
2022/06/14 07:07:36;;;;;;;4.30;1.70;;;19.10;52.80;;;;;;4987783;28;20457;-46
2022/06/14 07:10:06;;;;;;;2.67;1.80;;;19.30;52.40;;;;;;4989058;28;20463;-45
2022/06/14 07:12:43;;;;;;;4.80;2.03;;;19.40;52.70;;;;;;4990383;28;20461;-46
2022/06/14 07:15:26;;;;;;;2.50;1.57;;;19.60;51.30;;;;;;4984963;28;20472;-46
2022/06/14 07:17:59;;;;;;;4.50;1.80;;;19.70;51.20;;;;;;4987337;28;20472;-46
2022/06/14 07:20:44;;;;;;;2.77;1.47;;;19.80;51.20;;;;;;4987469;28;20699;-46
2022/06/14 07:23:20;;;;;;;3.20;1.63;;;20.00;50.30;;;;;;4984864;28;20488;-46
2022/06/14 07:26:03;;;;;;;4.37;1.50;;;20.20;50.70;;;;;;4966046;28;20506;-46
2022/06/14 07:28:59;;;;;;;3.37;1.40;;;20.40;50.40;;;;;;4984903;28;20465;-46
2022/06/14 07:31:42;;;;;;;5.10;1.80;;;20.60;50.50;;;;;;4983087;28;20463;-46
2022/06/14 07:34:11;;;;;;;2.30;1.47;;;20.70;49.70;;;;;;4985615;28;20457;-46
2022/06/14 07:36:59;;;;;;;6.07;1.63;;;20.90;49.40;;;;;;4986630;28;21294;-47
2022/06/14 07:39:48;;;;;;;5.40;2.10;;;21.10;49.10;;;;;;4985293;28;20460;-45
2022/06/14 07:42:18;;;;;;;2.67;1.50;;;21.30;48.70;;;;;;4969848;28;21017;-45
2022/06/14 07:45:00;;;;;;;2.70;1.83;;;21.50;48.50;;;;;;4959946;28;20458;-45
2022/06/14 07:47:35;;;;;;;6.43;2.13;;;21.70;47.90;;;;;;4987305;28;20814;-45
2022/06/14 07:50:14;;;;;;;8.00;2.67;;;21.80;47.40;;;;;;4966043;28;20461;-45
2022/06/14 07:52:47;;;;;;;8.90;1.77;;;21.90;47.50;;;;;;4972807;28;20563;-46
2022/06/14 07:55:17;;;;;;;3.07;1.63;;;22.00;47.40;;;;;;4983353;28;20593;-46
2022/06/14 07:57:46;;;;;;;3.87;1.40;;;22.20;47.20;;;;;;4981957;28;20485;-46
2022/06/14 08:03:20;;;;;;;2.77;2.17;;;22.50;47.30;;;;;;4968182;28;20563;-46
2022/06/14 08:05:50;;;;;;;2.63;2.40;;;22.70;47.30;;;;;;4987271;28;20460;-45
2022/06/14 08:08:21;;;;;;;3.90;2.10;;;22.80;46.40;;;;;;4964725;28;20464;-46
2022/06/14 08:10:52;;;;;;;2.53;1.63;;;23.00;46.50;;;;;;4966226;28;20471;-45
2022/06/14 08:13:24;;;;;;;2.60;1.77;;;23.10;46.10;;;;;;4966741;28;20477;-45
2022/06/14 08:15:55;;;;;;;5.30;2.00;;;23.20;46.10;;;;;;4984494;28;20483;-45
2022/06/14 08:18:37;;;;;;;3.13;1.60;;;23.30;46.30;;;;;;4984244;28;20547;-46
2022/06/14 08:21:07;;;;;;;4.17;1.93;;;23.50;45.50;;;;;;4967431;28;20460;-45
2022/06/14 08:23:40;;;;;;;3.20;1.83;;;23.70;44.30;;;;;;4984943;28;20491;-46
2022/06/14 08:26:11;;;;;;;3.60;2.00;;;23.80;44.40;;;;;;4982265;28;20460;-46
2022/06/14 08:29:07;;;;;;;7.20;2.40;;;24.00;44.90;;;;;;4983606;28;20691;-46
2022/06/14 08:31:40;;;;;;;3.33;2.13;;;24.10;44.80;;;;;;4984760;28;21041;-46
2022/06/14 08:34:17;;;;;;;4.07;2.40;;;24.30;43.10;;;;;;4985212;28;20472;-45
2022/06/14 08:36:57;;;;;;;3.90;1.80;;;24.30;43.10;;;;;;4967098;28;20643;-46
2022/06/14 08:39:49;;;;;;;3.77;1.80;;;24.30;43.00;;;;;;4985143;28;20464;-46
2022/06/14 08:42:22;;;;;;;4.57;2.93;;;24.40;42.80;;;;;;4983099;28;21048;-45
2022/06/14 08:45:06;;;;;;;5.83;1.70;;;24.40;42.00;;;;;;4985921;28;20497;-46
2022/06/14 08:47:36;;;;;;;3.30;1.77;;;24.40;41.30;;;;;;4989901;28;20879;-45
2022/06/14 08:50:18;;;;;;;3.33;1.70;;;24.40;41.70;;;;;;4987859;28;20452;-46
2022/06/14 08:52:53;;;;;;;3.03;1.77;;;24.50;42.20;;;;;;4982911;28;20460;-45
2022/06/14 08:55:39;;;;;;;3.17;1.87;;;24.70;42.30;;;;;;4991163;28;20796;-46
2022/06/14 08:58:08;;;;;;;5.20;1.57;;;24.90;42.30;;;;;;4988879;28;20841;-45
2022/06/14 09:00:51;;;;;;;2.40;2.13;;;25.00;41.40;;;;;;4986178;28;20491;-46
2022/06/14 09:03:56;;;;;;;4.07;1.70;;;25.30;41.50;;;;;;4984403;28;20594;-46
2022/06/14 09:06:42;;;;;;;2.30;1.93;;;25.40;41.30;;;;;;4964288;28;20460;-47
2022/06/14 09:09:29;;;;;;;3.13;2.27;;;25.50;40.30;;;;;;4970739;28;20460;-47
2022/06/14 09:12:07;;;;;;;3.50;1.60;;;25.70;39.70;;;;;;4971924;28;20992;-47
2022/06/14 09:15:06;;;;;;;2.47;1.40;;;25.80;39.70;;;;;;4985158;28;20829;-47
2022/06/14 09:18:08;;;;;;;2.87;1.50;;;26.00;38.90;;;;;;4989572;28;20452;-47
2022/06/14 09:20:58;;;;;;;2.47;1.20;;;26.00;38.40;;;;;;4972115;28;20528;-47
2022/06/14 09:23:46;;;;;;;3.97;1.83;;;26.10;37.30;;;;;;4982573;28;20488;-47
2022/06/14 09:26:26;;;;;;;2.13;1.50;;;26.20;36.70;;;;;;4987430;28;20483;-46
2022/06/14 09:29:12;;;;;;;4.70;1.50;;;26.10;37.50;;;;;;4986226;28;20456;-46
2022/06/14 09:31:48;;;;;;;3.40;1.33;;;26.10;37.80;;;;;;4969465;28;20463;-46
2022/06/14 09:34:26;;;;;;;1.93;1.70;;;26.20;36.70;;;;;;4991964;28;20532;-46
2022/06/14 09:37:30;;;;;;;3.27;1.37;;;26.30;36.80;;;;;;4992154;28;20499;-48
2022/06/14 09:40:15;;;;;;;3.00;1.53;;;26.30;36.50;;;;;;4987278;28;20710;-48
2022/06/14 09:43:00;;;;;;;4.17;1.53;;;26.40;36.70;;;;;;4967691;28;21072;-45
2022/06/14 09:45:57;;;;;;;2.80;1.60;;;26.50;36.20;;;;;;4990855;28;20468;-46
2022/06/14 09:48:39;;;;;;;2.37;1.47;;;26.60;35.60;;;;;;4995666;28;20923;-46
2022/06/14 09:51:22;;;;;;;1.83;1.07;;;26.60;35.70;;;;;;4988619;28;20471;-48
2022/06/14 09:54:26;;;;;;;1.80;1.20;;;26.60;36.00;;;;;;4988111;28;20551;-48
2022/06/14 09:57:32;;;;;;;1.20;1.10;;;26.60;35.20;;;;;;4990356;28;20464;-48
2022/06/14 10:00:13;;;;;;;2.33;1.43;;;26.70;34.80;;;;;;4946953;28;20481;-48
2022/06/14 10:03:09;;;;;;;4.70;1.37;;;26.70;33.70;;;;;;4987712;28;20503;-48
2022/06/14 10:05:58;;;;;;;1.97;1.57;;;26.80;34.00;;;;;;4968740;28;20522;-49
2022/06/14 10:08:34;;;;;;;2.60;1.47;;;26.90;34.00;;;;;;4984188;28;20460;-48
2022/06/14 10:11:19;;;;;;;3.07;1.40;;;27.20;33.90;;;;;;4988743;28;20965;-47
2022/06/14 10:13:52;;;;;;;3.60;1.97;;;27.40;33.60;;;;;;4987295;28;20712;-49
2022/06/14 10:16:32;;;;;;;1.30;1.20;;;27.60;33.70;;;;;;4984774;28;20456;-49
2022/06/14 10:18:59;;;;;;;1.33;1.20;;;27.80;32.20;;;;;;4988538;28;20469;-49
2022/06/14 10:21:33;;;;;;;4.20;1.50;;;27.90;31.90;;;;;;4983071;28;20671;-49
2022/06/14 10:24:05;;;;;;;2.60;1.87;;;27.90;31.90;;;;;;4985838;28;20224;-49
2022/06/14 10:30:11;;;;;;;4.17;1.60;;;27.70;33.50;;;;;;4986898;28;20201;-48
2022/06/14 10:33:00;;;;;;;2.00;1.60;;;27.60;32.10;;;;;;4961596;28;20304;-48
2022/06/14 10:35:45;;;;;;;1.87;1.40;;;27.50;31.60;;;;;;4966273;28;20344;-48
2022/06/14 10:38:49;;;;;;;5.67;2.10;;;27.40;31.90;;;;;;4987458;28;20464;-48
2022/06/14 10:41:40;;;;;;;3.13;1.70;;;27.20;32.30;;;;;;4984879;28;20547;-47
2022/06/14 10:44:34;;;;;;;2.83;1.30;;;27.10;32.60;;;;;;4988861;28;20321;-48
2022/06/14 10:47:25;;;;;;;1.50;1.40;;;27.10;32.40;;;;;;4983404;28;20209;-48
2022/06/14 10:50:29;;;;;;;2.00;1.40;;;27.20;32.30;;;;;;4975974;28;20231;-48
2022/06/14 10:53:11;;;;;;;4.50;1.67;;;26.90;32.30;;;;;;4986383;28;20495;-48
2022/06/14 10:55:57;;;;;;;3.57;1.67;;;26.50;33.80;;;;;;4986608;28;20930;-48
2022/06/14 10:59:03;;;;;;;1.80;1.67;;;26.10;34.10;;;;;;4980561;28;20499;-49
2022/06/14 11:01:58;;;;;;;2.33;1.60;;;25.80;35.10;;;;;;4974091;28;20563;-49
2022/06/14 11:04:51;;;;;;;2.43;1.67;;;25.50;35.00;;;;;;4976294;28;21029;-48
2022/06/14 11:07:29;;;;;;;2.73;1.50;;;25.40;35.50;;;;;;4984791;28;20469;-48
2022/06/14 11:10:15;;;;;;;5.73;2.00;;;25.20;35.90;;;;;;4984711;28;20543;-48
2022/06/14 11:12:57;;;;;;;3.67;1.90;;;25.00;35.60;;;;;;4985142;28;20467;-48
2022/06/14 11:15:44;;;;;;;3.60;1.60;;;24.90;36.20;;;;;;4986351;28;20567;-48
2022/06/14 11:18:31;;;;;;;3.53;2.50;;;24.90;35.50;;;;;;4987783;28;20452;-48
2022/06/14 11:21:17;;;;;;;2.13;1.40;;;24.80;35.60;;;;;;4988495;28;20547;-48
2022/06/14 11:23:50;;;;;;;9.17;1.70;;;24.70;35.60;;;;;;4986341;28;20571;-48
2022/06/14 11:26:56;;;;;;;3.83;1.60;;;24.70;35.30;;;;;;4989860;28;20452;-48
2022/06/14 11:30:00;;;;;;;2.50;2.20;;;24.60;35.70;;;;;;4987849;28;20831;-48
2022/06/14 11:32:44;;;;;;;2.93;1.60;;;24.60;36.20;;;;;;4971307;28;20464;-48
2022/06/14 11:35:32;;;;;;;2.60;1.87;;;24.60;35.90;;;;;;4970646;28;20455;-47
2022/06/14 11:38:08;;;;;;;3.00;1.80;;;24.50;35.60;;;;;;4987033;28;20468;-47
2022/06/14 11:40:42;;;;;;;2.77;2.00;;;24.50;35.40;;;;;;4986165;28;20464;-47
2022/06/14 11:43:46;;;;;;;3.17;1.63;;;24.60;35.90;;;;;;4986738;28;20480;-47
2022/06/14 11:46:30;;;;;;;3.63;1.63;;;24.60;35.70;;;;;;4986336;28;20907;-48
2022/06/14 11:49:07;;;;;;;3.50;1.80;;;24.40;36.10;;;;;;4986853;28;20444;-48
2022/06/14 11:51:43;;;;;;;3.90;2.00;;;24.40;36.60;;;;;;4988185;28;20486;-48
2022/06/14 11:54:27;;;;;;;1.80;1.20;;;24.40;36.10;;;;;;4987103;28;20562;-48
2022/06/14 11:57:33;;;;;;;2.20;1.53;;;24.40;34.10;;;;;;4983499;28;20833;-48
2022/06/14 12:00:17;;;;;;;4.07;1.60;;;24.50;34.10;;;;;;4967514;28;21849;-48
2022/06/14 12:03:28;;;;;;;2.40;1.63;;;24.60;34.40;;;;;;4969009;28;20475;-48
2022/06/14 12:06:20;;;;;;;2.77;1.40;;;24.60;34.40;;;;;;4969906;28;20468;-48
2022/06/14 12:09:21;;;;;;;2.40;1.20;;;24.70;34.10;;;;;;4983526;28;20461;-48
2022/06/14 12:11:55;;;;;;;4.73;1.67;;;24.60;33.40;;;;;;4981101;28;20843;-48
2022/06/14 12:14:43;;;;;;;2.83;1.43;;;24.60;34.50;;;;;;4983207;28;20557;-48
2022/06/14 12:17:42;;;;;;;3.03;1.70;;;24.60;34.50;;;;;;4981933;28;21016;-48
2022/06/14 12:20:13;;;;;;;4.77;1.90;;;24.60;34.40;;;;;;4964123;28;20460;-48
2022/06/14 12:22:55;;;;;;;1.93;1.70;;;24.50;34.90;;;;;;4988304;28;20468;-48
2022/06/14 12:28:40;;;;;;;3.37;1.60;;;24.60;34.70;;;;;;4989461;28;20453;-48
2022/06/14 12:31:21;;;;;;;4.73;1.50;;;24.60;34.50;;;;;;4988973;28;20464;-48
2022/06/14 12:34:09;;;;;;;2.90;1.70;;;24.60;34.40;;;;;;4987299;28;20887;-48
2022/06/14 12:36:52;;;;;;;5.57;2.00;;;24.70;35.30;;;;;;4972998;28;20456;-48
2022/06/14 12:39:27;;;;;;;2.00;1.43;;;24.70;34.90;;;;;;4988934;28;20448;-48
2022/06/14 12:41:57;;;;;;;4.33;1.47;;;24.70;34.10;;;;;;4971922;28;20798;-48
2022/06/14 12:44:30;;;;;;;2.30;1.63;;;24.80;33.70;;;;;;4988197;28;20500;-49
2022/06/14 12:47:03;;;;;;;2.20;1.40;;;24.80;32.90;;;;;;4987984;28;20460;-49
2022/06/14 12:49:36;;;;;;;2.87;1.50;;;24.80;32.60;;;;;;4988014;28;20468;-48
2022/06/14 12:52:30;;;;;;;1.87;1.23;;;25.00;33.30;;;;;;4974724;28;20456;-49
2022/06/14 12:55:19;;;;;;;2.03;1.20;;;24.90;32.60;;;;;;4988831;28;21086;-48
2022/06/14 12:58:20;;;;;;;2.33;1.40;;;25.00;33.60;;;;;;4972173;28;20460;-48
2022/06/14 13:01:02;;;;;;;4.43;1.80;;;25.00;33.50;;;;;;4988400;28;20487;-48
2022/06/14 13:03:35;;;;;;;2.50;1.00;;;25.00;33.90;;;;;;4988365;28;20573;-48
2022/06/14 13:06:35;;;;;;;6.17;2.20;;;24.90;33.60;;;;;;4989243;28;20453;-48
2022/06/14 13:09:24;;;;;;;1.80;1.23;;;25.00;33.60;;;;;;4993153;28;20956;-46
2022/06/14 13:12:16;;;;;;;5.20;1.70;;;25.00;33.00;;;;;;4990267;28;20551;-46
2022/06/14 13:15:21;;;;;;;2.30;1.50;;;25.10;32.50;;;;;;4990938;28;20464;-47
2022/06/14 13:18:03;;;;;;;6.07;1.87;;;25.20;31.80;;;;;;4980320;28;20531;-47
2022/06/14 13:20:50;;;;;;;8.70;3.60;;;25.20;32.00;;;;;;4994582;28;20536;-47
2022/06/14 13:23:20;;;;;;;2.50;1.27;;;25.20;33.10;;;;;;4996051;28;20572;-47
2022/06/14 13:26:15;;;;;;;1.40;1.17;;;25.20;32.30;;;;;;4982910;28;20676;-47
2022/06/14 13:28:54;;;;;;;2.03;1.20;;;25.20;32.00;;;;;;4996576;28;20518;-47
2022/06/14 13:31:24;;;;;;;1.83;1.23;;;25.20;30.70;;;;;;4979532;28;20520;-46
2022/06/14 13:33:58;;;;;;;2.70;1.47;;;25.30;30.10;;;;;;4997206;28;20544;-47
2022/06/14 13:36:29;;;;;;;1.97;1.20;;;25.40;31.90;;;;;;4995417;28;20508;-47
2022/06/14 13:39:19;;;;;;;4.93;1.70;;;25.50;30.80;;;;;;4998443;28;20461;-47
2022/06/14 13:42:03;;;;;;;2.30;1.50;;;25.50;29.80;;;;;;4980133;28;20569;-47
2022/06/14 13:45:16;;;;;;;1.70;1.23;;;25.60;31.90;;;;;;4997875;28;20495;-47
2022/06/14 13:47:58;;;;;;;1.50;1.30;;;25.70;31.40;;;;;;4927467;28;20464;-47
2022/06/14 13:50:44;;;;;;;2.03;1.17;;;25.60;31.00;;;;;;4980264;28;20452;-47
2022/06/14 13:53:28;;;;;;;3.10;1.57;;;25.60;30.70;;;;;;4996006;28;20551;-47
2022/06/14 13:56:12;;;;;;;1.53;1.30;;;25.60;31.00;;;;;;4981745;28;20461;-47
2022/06/14 13:58:49;;;;;;;4.40;1.60;;;25.50;31.60;;;;;;4996916;28;21142;-47
2022/06/14 14:01:50;;;;;;;3.17;1.30;;;25.60;32.10;;;;;;4995734;28;20480;-46
2022/06/14 14:04:20;;;;;;;1.93;1.10;;;25.50;31.20;;;;;;4997813;28;20495;-47
2022/06/14 14:07:04;;;;;;;4.00;1.90;;;25.50;32.10;;;;;;4995209;28;20811;-47
2022/06/14 14:09:56;;;;;;;7.40;1.80;;;25.50;32.70;;;;;;4996204;28;20473;-47
2022/06/14 14:12:25;;;;;;;3.00;1.30;;;25.40;32.00;;;;;;4981972;28;20451;-47
2022/06/14 14:15:18;;;;;;;2.07;1.40;;;25.40;31.40;;;;;;4997807;28;20519;-47